sensor_id;sensor_type;location;lat;lon;timestamp;pressure;altitude;pressure_sealevel;temperature;humidity
64253;BME280;50592;52.958;-7.470;2023-12-14T00:01:35;100371.13;;;7.06;100.00
64253;BME280;50592;52.958;-7.470;2023-12-14T00:04:01;100376.28;;;7.08;100.00
64253;BME280;50592;52.958;-7.470;2023-12-14T00:09:48;100367.28;;;7.11;100.00
64253;BME280;50592;52.958;-7.470;2023-12-14T00:12:22;100370.63;;;7.13;100.00
64253;BME280;50592;52.958;-7.470;2023-12-14T00:14:55;100373.97;;;7.15;100.00
64253;BME280;50592;52.958;-7.470;2023-12-14T00:17:26;100366.91;;;7.15;100.00
64253;BME280;50592;52.958;-7.470;2023-12-14T00:19:54;100369.66;;;7.14;100.00
64253;BME280;50592;52.958;-7.470;2023-12-14T00:22:20;100371.22;;;7.16;100.00
64253;BME280;50592;52.958;-7.470;2023-12-14T00:24:46;100364.28;;;7.15;100.00
64253;BME280;50592;52.958;-7.470;2023-12-14T00:27:14;100372.28;;;7.14;100.00
64253;BME280;50592;52.958;-7.470;2023-12-14T00:29:43;100366.22;;;7.13;100.00
64253;BME280;50592;52.958;-7.470;2023-12-14T00:32:15;100366.22;;;7.13;100.00
64253;BME280;50592;52.958;-7.470;2023-12-14T00:34:43;100377.44;;;7.15;100.00
64253;BME280;50592;52.958;-7.470;2023-12-14T00:37:23;100366.78;;;7.17;100.00
64253;BME280;50592;52.958;-7.470;2023-12-14T00:39:49;100371.81;;;7.20;100.00
64253;BME280;50592;52.958;-7.470;2023-12-14T00:42:20;100371.00;;;7.19;100.00
64253;BME280;50592;52.958;-7.470;2023-12-14T00:44:56;100374.19;;;7.23;100.00
64253;BME280;50592;52.958;-7.470;2023-12-14T00:47:22;100364.38;;;7.25;100.00
64253;BME280;50592;52.958;-7.470;2023-12-14T00:49:48;100373.81;;;7.28;100.00
64253;BME280;50592;52.958;-7.470;2023-12-14T00:52:14;100369.13;;;7.31;100.00
64253;BME280;50592;52.958;-7.470;2023-12-14T00:54:40;100352.44;;;7.32;100.00
64253;BME280;50592;52.958;-7.470;2023-12-14T00:57:08;100363.63;;;7.35;100.00
64253;BME280;50592;52.958;-7.470;2023-12-14T00:59:39;100367.69;;;7.39;100.00
64253;BME280;50592;52.958;-7.470;2023-12-14T01:02:06;100376.28;;;7.41;100.00
64253;BME280;50592;52.958;-7.470;2023-12-14T01:04:34;100380.59;;;7.42;100.00
64253;BME280;50592;52.958;-7.470;2023-12-14T01:07:00;100386.41;;;7.45;100.00
64253;BME280;50592;52.958;-7.470;2023-12-14T01:09:25;100384.63;;;7.46;100.00
64253;BME280;50592;52.958;-7.470;2023-12-14T01:11:51;100387.25;;;7.46;100.00
64253;BME280;50592;52.958;-7.470;2023-12-14T01:14:17;100388.78;;;7.49;100.00
64253;BME280;50592;52.958;-7.470;2023-12-14T01:16:43;100374.84;;;7.48;100.00
64253;BME280;50592;52.958;-7.470;2023-12-14T01:19:09;100368.59;;;7.49;100.00
64253;BME280;50592;52.958;-7.470;2023-12-14T01:21:38;100353.53;;;7.51;100.00
64253;BME280;50592;52.958;-7.470;2023-12-14T01:24:09;100359.34;;;7.55;100.00
64253;BME280;50592;52.958;-7.470;2023-12-14T01:26:45;100352.31;;;7.55;100.00
64253;BME280;50592;52.958;-7.470;2023-12-14T01:29:10;100362.72;;;7.57;100.00
64253;BME280;50592;52.958;-7.470;2023-12-14T01:31:39;100366.06;;;7.59;100.00
64253;BME280;50592;52.958;-7.470;2023-12-14T01:34:13;100376.31;;;7.62;100.00
64253;BME280;50592;52.958;-7.470;2023-12-14T01:36:41;100382.03;;;7.67;100.00
64253;BME280;50592;52.958;-7.470;2023-12-14T01:39:07;100379.28;;;7.69;100.00
64253;BME280;50592;52.958;-7.470;2023-12-14T01:41:33;100378.19;;;7.72;100.00
64253;BME280;50592;52.958;-7.470;2023-12-14T01:44:04;100376.41;;;7.72;100.00
64253;BME280;50592;52.958;-7.470;2023-12-14T01:46:52;100390.38;;;7.73;100.00
64253;BME280;50592;52.958;-7.470;2023-12-14T01:49:18;100379.59;;;7.76;100.00
64253;BME280;50592;52.958;-7.470;2023-12-14T01:51:43;100380.31;;;7.78;100.00
64253;BME280;50592;52.958;-7.470;2023-12-14T01:54:09;100380.19;;;7.79;100.00
64253;BME280;50592;52.958;-7.470;2023-12-14T01:56:35;100382.69;;;7.81;100.00
64253;BME280;50592;52.958;-7.470;2023-12-14T01:59:03;100387.81;;;7.82;100.00
64253;BME280;50592;52.958;-7.470;2023-12-14T02:01:34;100391.03;;;7.86;100.00
64253;BME280;50592;52.958;-7.470;2023-12-14T02:04:11;100388.28;;;7.88;100.00
64253;BME280;50592;52.958;-7.470;2023-12-14T02:06:40;100385.38;;;7.91;100.00
64253;BME280;50592;52.958;-7.470;2023-12-14T02:09:06;100393.03;;;7.94;100.00
64253;BME280;50592;52.958;-7.470;2023-12-14T02:11:31;100393.88;;;7.94;100.00
64253;BME280;50592;52.958;-7.470;2023-12-14T02:14:06;100397.31;;;7.95;100.00
64253;BME280;50592;52.958;-7.470;2023-12-14T02:17:05;100396.25;;;7.98;100.00
64253;BME280;50592;52.958;-7.470;2023-12-14T02:19:40;100389.28;;;7.97;100.00
64253;BME280;50592;52.958;-7.470;2023-12-14T02:22:08;100399.69;;;7.98;100.00
64253;BME280;50592;52.958;-7.470;2023-12-14T02:24:41;100401.38;;;7.99;100.00
64253;BME280;50592;52.958;-7.470;2023-12-14T02:27:13;100405.81;;;7.99;100.00
64253;BME280;50592;52.958;-7.470;2023-12-14T02:29:39;100397.91;;;7.99;100.00
64253;BME280;50592;52.958;-7.470;2023-12-14T02:32:08;100401.38;;;7.99;100.00
64253;BME280;50592;52.958;-7.470;2023-12-14T02:35:00;100404.69;;;8.01;100.00
64253;BME280;50592;52.958;-7.470;2023-12-14T02:37:34;100411.53;;;8.04;100.00
64253;BME280;50592;52.958;-7.470;2023-12-14T02:40:25;100404.44;;;8.04;100.00
64253;BME280;50592;52.958;-7.470;2023-12-14T02:43:37;100410.28;;;8.08;100.00
64253;BME280;50592;52.958;-7.470;2023-12-14T02:49:05;100406.41;;;8.12;100.00
64253;BME280;50592;52.958;-7.470;2023-12-14T02:51:49;100415.03;;;8.14;100.00
64253;BME280;50592;52.958;-7.470;2023-12-14T02:54:37;100415.88;;;8.15;100.00
64253;BME280;50592;52.958;-7.470;2023-12-14T02:57:11;100419.22;;;8.17;100.00
64253;BME280;50592;52.958;-7.470;2023-12-14T02:59:50;100418.25;;;8.18;100.00
64253;BME280;50592;52.958;-7.470;2023-12-14T03:02:22;100418.13;;;8.19;100.00
64253;BME280;50592;52.958;-7.470;2023-12-14T03:04:54;100416.47;;;8.18;100.00
64253;BME280;50592;52.958;-7.470;2023-12-14T03:07:20;100419.91;;;8.19;100.00
64253;BME280;50592;52.958;-7.470;2023-12-14T03:09:46;100419.09;;;8.18;100.00
64253;BME280;50592;52.958;-7.470;2023-12-14T03:12:12;100417.28;;;8.19;100.00
64253;BME280;50592;52.958;-7.470;2023-12-14T03:14:39;100422.53;;;8.19;100.00
64253;BME280;50592;52.958;-7.470;2023-12-14T03:17:15;100422.41;;;8.21;100.00
64253;BME280;50592;52.958;-7.470;2023-12-14T03:19:44;100424.09;;;8.22;100.00
64253;BME280;50592;52.958;-7.470;2023-12-14T03:22:10;100426.59;;;8.23;100.00
64253;BME280;50592;52.958;-7.470;2023-12-14T03:24:36;100412.59;;;8.23;100.00
64253;BME280;50592;52.958;-7.470;2023-12-14T03:27:02;100425.63;;;8.24;100.00
64253;BME280;50592;52.958;-7.470;2023-12-14T03:29:29;100426.59;;;8.23;100.00
64253;BME280;50592;52.958;-7.470;2023-12-14T03:31:58;100423.00;;;8.24;100.00
64253;BME280;50592;52.958;-7.470;2023-12-14T03:34:24;100424.66;;;8.25;100.00
64253;BME280;50592;52.958;-7.470;2023-12-14T03:36:51;100428.13;;;8.26;100.00
64253;BME280;50592;52.958;-7.470;2023-12-14T03:39:25;100417.47;;;8.27;100.00
64253;BME280;50592;52.958;-7.470;2023-12-14T03:41:58;100408.59;;;8.28;100.00
64253;BME280;50592;52.958;-7.470;2023-12-14T03:44:36;100418.06;;;8.31;100.00
64253;BME280;50592;52.958;-7.470;2023-12-14T03:47:02;100419.06;;;8.40;100.00
64253;BME280;50592;52.958;-7.470;2023-12-14T03:49:28;100418.41;;;8.48;100.00
64253;BME280;50592;52.958;-7.470;2023-12-14T03:52:04;100411.56;;;8.56;100.00
64253;BME280;50592;52.958;-7.470;2023-12-14T03:54:30;100404.66;;;8.65;100.00
64253;BME280;50592;52.958;-7.470;2023-12-14T03:56:56;100416.22;;;8.74;100.00
64253;BME280;50592;52.958;-7.470;2023-12-14T03:59:22;100415.94;;;8.77;100.00
64253;BME280;50592;52.958;-7.470;2023-12-14T04:01:47;100408.59;;;8.81;100.00
64253;BME280;50592;52.958;-7.470;2023-12-14T04:04:13;100412.06;;;8.81;100.00
64253;BME280;50592;52.958;-7.470;2023-12-14T04:06:40;100419.97;;;8.81;100.00
64253;BME280;50592;52.958;-7.470;2023-12-14T04:09:06;100420.69;;;8.84;100.00
64253;BME280;50592;52.958;-7.470;2023-12-14T04:11:32;100424.84;;;8.86;100.00
64253;BME280;50592;52.958;-7.470;2023-12-14T04:13:58;100430.81;;;8.88;100.00
64253;BME280;50592;52.958;-7.470;2023-12-14T04:16:24;100422.78;;;8.90;100.00
64253;BME280;50592;52.958;-7.470;2023-12-14T04:18:49;100425.97;;;8.93;100.00
64253;BME280;50592;52.958;-7.470;2023-12-14T04:21:18;100422.38;;;8.95;100.00
64253;BME280;50592;52.958;-7.470;2023-12-14T04:23:43;100430.16;;;8.96;100.00
64253;BME280;50592;52.958;-7.470;2023-12-14T04:26:11;100428.19;;;8.98;100.00
64253;BME280;50592;52.958;-7.470;2023-12-14T04:28:37;100424.59;;;8.99;100.00
64253;BME280;50592;52.958;-7.470;2023-12-14T04:31:06;100429.59;;;9.02;100.00
64253;BME280;50592;52.958;-7.470;2023-12-14T04:33:31;100432.97;;;9.04;100.00
64253;BME280;50592;52.958;-7.470;2023-12-14T04:35:57;100431.13;;;9.05;100.00
64253;BME280;50592;52.958;-7.470;2023-12-14T04:38:23;100427.56;;;9.06;100.00
64253;BME280;50592;52.958;-7.470;2023-12-14T04:40:49;100432.69;;;9.08;100.00
64253;BME280;50592;52.958;-7.470;2023-12-14T04:43:14;100439.63;;;9.09;100.00
64253;BME280;50592;52.958;-7.470;2023-12-14T04:45:43;100447.25;;;9.12;100.00
64253;BME280;50592;52.958;-7.470;2023-12-14T04:48:11;100450.75;;;9.12;100.00
64253;BME280;50592;52.958;-7.470;2023-12-14T04:50:37;100452.25;;;9.15;100.00
64253;BME280;50592;52.958;-7.470;2023-12-14T04:53:03;100458.38;;;9.15;100.00
64253;BME280;50592;52.958;-7.470;2023-12-14T04:55:30;100459.06;;;9.17;100.00
64253;BME280;50592;52.958;-7.470;2023-12-14T04:57:55;100452.97;;;9.17;100.00
64253;BME280;50592;52.958;-7.470;2023-12-14T05:00:21;100450.47;;;9.15;100.00
64253;BME280;50592;52.958;-7.470;2023-12-14T05:02:47;100445.47;;;9.12;100.00
64253;BME280;50592;52.958;-7.470;2023-12-14T05:05:13;100450.88;;;9.11;100.00
64253;BME280;50592;52.958;-7.470;2023-12-14T05:07:39;100456.41;;;9.08;100.00
64253;BME280;50592;52.958;-7.470;2023-12-14T05:10:05;100453.06;;;9.05;100.00
64253;BME280;50592;52.958;-7.470;2023-12-14T05:12:31;100452.50;;;9.02;100.00
64253;BME280;50592;52.958;-7.470;2023-12-14T05:14:57;100456.25;;;8.99;100.00
64253;BME280;50592;52.958;-7.470;2023-12-14T05:17:22;100457.47;;;8.95;100.00
64253;BME280;50592;52.958;-7.470;2023-12-14T05:19:48;100462.59;;;8.87;100.00
64253;BME280;50592;52.958;-7.470;2023-12-14T05:22:15;100464.66;;;8.83;100.00
64253;BME280;50592;52.958;-7.470;2023-12-14T05:24:41;100479.06;;;8.79;100.00
64253;BME280;50592;52.958;-7.470;2023-12-14T05:27:06;100484.59;;;8.76;100.00
64253;BME280;50592;52.958;-7.470;2023-12-14T05:29:32;100477.09;;;8.71;100.00
64253;BME280;50592;52.958;-7.470;2023-12-14T05:31:58;100473.28;;;8.64;100.00
64253;BME280;50592;52.958;-7.470;2023-12-14T05:34:24;100470.47;;;8.55;100.00
64253;BME280;50592;52.958;-7.470;2023-12-14T05:36:50;100472.78;;;8.49;100.00
64253;BME280;50592;52.958;-7.470;2023-12-14T05:39:15;100474.97;;;8.43;100.00
64253;BME280;50592;52.958;-7.470;2023-12-14T05:41:41;100487.66;;;8.38;100.00
64253;BME280;50592;52.958;-7.470;2023-12-14T05:44:07;100483.94;;;8.41;100.00
64253;BME280;50592;52.958;-7.470;2023-12-14T05:46:33;100483.69;;;8.44;100.00
64253;BME280;50592;52.958;-7.470;2023-12-14T05:48:58;100488.97;;;8.44;100.00
64253;BME280;50592;52.958;-7.470;2023-12-14T05:53:53;100491.34;;;8.47;100.00
64253;BME280;50592;52.958;-7.470;2023-12-14T05:56:19;100494.66;;;8.49;100.00
64253;BME280;50592;52.958;-7.470;2023-12-14T05:58:45;100498.00;;;8.51;100.00
64253;BME280;50592;52.958;-7.470;2023-12-14T06:01:10;100507.44;;;8.54;100.00
64253;BME280;50592;52.958;-7.470;2023-12-14T06:03:36;100508.91;;;8.58;100.00
64253;BME280;50592;52.958;-7.470;2023-12-14T06:06:02;100508.78;;;8.60;100.00
64253;BME280;50592;52.958;-7.470;2023-12-14T06:08:27;100505.03;;;8.62;100.00
64253;BME280;50592;52.958;-7.470;2023-12-14T06:10:53;100511.84;;;8.65;100.00
64253;BME280;50592;52.958;-7.470;2023-12-14T06:13:19;100517.09;;;8.65;100.00
64253;BME280;50592;52.958;-7.470;2023-12-14T06:15:46;100522.13;;;8.68;100.00
64253;BME280;50592;52.958;-7.470;2023-12-14T06:18:12;100529.06;;;8.69;100.00
64253;BME280;50592;52.958;-7.470;2023-12-14T06:20:39;100537.69;;;8.71;100.00
64253;BME280;50592;52.958;-7.470;2023-12-14T06:23:06;100544.75;;;8.71;100.00
64253;BME280;50592;52.958;-7.470;2023-12-14T06:25:31;100548.25;;;8.71;100.00
64253;BME280;50592;52.958;-7.470;2023-12-14T06:27:57;100556.16;;;8.71;100.00
64253;BME280;50592;52.958;-7.470;2023-12-14T06:30:23;100554.31;;;8.72;100.00
64253;BME280;50592;52.958;-7.470;2023-12-14T06:32:49;100564.06;;;8.71;100.00
64253;BME280;50592;52.958;-7.470;2023-12-14T06:35:15;100577.09;;;8.73;100.00
64253;BME280;50592;52.958;-7.470;2023-12-14T06:37:40;100587.50;;;8.74;100.00
64253;BME280;50592;52.958;-7.470;2023-12-14T06:40:08;100599.72;;;8.75;100.00
64253;BME280;50592;52.958;-7.470;2023-12-14T06:42:34;100594.56;;;8.74;100.00
64253;BME280;50592;52.958;-7.470;2023-12-14T06:45:03;100593.72;;;8.73;100.00
64253;BME280;50592;52.958;-7.470;2023-12-14T06:47:30;100607.75;;;8.74;100.00
64253;BME280;50592;52.958;-7.470;2023-12-14T06:49:55;100603.59;;;8.71;100.00
64253;BME280;50592;52.958;-7.470;2023-12-14T06:52:22;100610.63;;;8.71;100.00
64253;BME280;50592;52.958;-7.470;2023-12-14T06:54:48;100616.97;;;8.68;100.00
64253;BME280;50592;52.958;-7.470;2023-12-14T06:57:14;100621.31;;;8.69;100.00
64253;BME280;50592;52.958;-7.470;2023-12-14T06:59:40;100631.97;;;8.67;100.00
64253;BME280;50592;52.958;-7.470;2023-12-14T07:02:06;100621.69;;;8.64;100.00
64253;BME280;50592;52.958;-7.470;2023-12-14T07:04:31;100622.06;;;8.60;100.00
64253;BME280;50592;52.958;-7.470;2023-12-14T07:06:57;100622.56;;;8.53;100.00
64253;BME280;50592;52.958;-7.470;2023-12-14T07:09:24;100632.50;;;8.50;100.00
64253;BME280;50592;52.958;-7.470;2023-12-14T07:11:50;100630.25;;;8.45;100.00
64253;BME280;50592;52.958;-7.470;2023-12-14T07:14:15;100634.19;;;8.39;100.00
64253;BME280;50592;52.958;-7.470;2023-12-14T07:16:41;100645.09;;;8.35;100.00
64253;BME280;50592;52.958;-7.470;2023-12-14T07:19:07;100651.84;;;8.27;100.00
64253;BME280;50592;52.958;-7.470;2023-12-14T07:21:33;100649.59;;;8.23;100.00
64253;BME280;50592;52.958;-7.470;2023-12-14T07:23:58;100656.06;;;8.18;100.00
64253;BME280;50592;52.958;-7.470;2023-12-14T07:26:24;100665.28;;;8.13;100.00
64253;BME280;50592;52.958;-7.470;2023-12-14T07:31:18;100665.78;;;8.06;100.00
64253;BME280;50592;52.958;-7.470;2023-12-14T07:33:45;100668.66;;;8.03;100.00
64253;BME280;50592;52.958;-7.470;2023-12-14T07:36:11;100667.00;;;8.02;100.00
64253;BME280;50592;52.958;-7.470;2023-12-14T07:38:39;100674.41;;;7.97;100.00
64253;BME280;50592;52.958;-7.470;2023-12-14T07:41:04;100681.25;;;7.88;100.00
64253;BME280;50592;52.958;-7.470;2023-12-14T07:43:31;100680.16;;;7.79;100.00
64253;BME280;50592;52.958;-7.470;2023-12-14T07:45:57;100693.91;;;7.72;100.00
64253;BME280;50592;52.958;-7.470;2023-12-14T07:48:23;100691.75;;;7.65;100.00
64253;BME280;50592;52.958;-7.470;2023-12-14T07:50:49;100702.66;;;7.61;100.00
64253;BME280;50592;52.958;-7.470;2023-12-14T07:53:15;100710.03;;;7.55;100.00
64253;BME280;50592;52.958;-7.470;2023-12-14T07:55:40;100715.78;;;7.49;100.00
64253;BME280;50592;52.958;-7.470;2023-12-14T07:58:07;100715.53;;;7.41;100.00
64253;BME280;50592;52.958;-7.470;2023-12-14T08:00:33;100713.34;;;7.35;100.00
64253;BME280;50592;52.958;-7.470;2023-12-14T08:02:58;100709.41;;;7.29;100.00
64253;BME280;50592;52.958;-7.470;2023-12-14T08:05:24;100715.03;;;7.24;100.00
64253;BME280;50592;52.958;-7.470;2023-12-14T08:07:50;100723.84;;;7.23;100.00
64253;BME280;50592;52.958;-7.470;2023-12-14T08:10:18;100728.28;;;7.23;100.00
64253;BME280;50592;52.958;-7.470;2023-12-14T08:12:44;100727.44;;;7.22;100.00
64253;BME280;50592;52.958;-7.470;2023-12-14T08:15:09;100735.22;;;7.24;100.00
64253;BME280;50592;52.958;-7.470;2023-12-14T08:17:35;100742.13;;;7.25;100.00
64253;BME280;50592;52.958;-7.470;2023-12-14T08:20:01;100746.34;;;7.27;100.00
64253;BME280;50592;52.958;-7.470;2023-12-14T08:22:26;100760.31;;;7.28;100.00
64253;BME280;50592;52.958;-7.470;2023-12-14T08:24:52;100767.38;;;7.27;100.00
64253;BME280;50592;52.958;-7.470;2023-12-14T08:27:17;100774.66;;;7.24;100.00
64253;BME280;50592;52.958;-7.470;2023-12-14T08:29:43;100772.97;;;7.23;100.00
64253;BME280;50592;52.958;-7.470;2023-12-14T08:32:11;100776.53;;;7.22;100.00
64253;BME280;50592;52.958;-7.470;2023-12-14T08:34:36;100782.88;;;7.19;100.00
64253;BME280;50592;52.958;-7.470;2023-12-14T08:37:02;100783.97;;;7.16;100.00
64253;BME280;50592;52.958;-7.470;2023-12-14T08:39:28;100784.88;;;7.15;100.00
64253;BME280;50592;52.958;-7.470;2023-12-14T08:41:54;100788.47;;;7.14;100.00
64253;BME280;50592;52.958;-7.470;2023-12-14T08:44:19;100792.78;;;7.15;100.00
64253;BME280;50592;52.958;-7.470;2023-12-14T08:46:45;100801.50;;;7.16;100.00
64253;BME280;50592;52.958;-7.470;2023-12-14T08:49:11;100798.75;;;7.17;100.00
64253;BME280;50592;52.958;-7.470;2023-12-14T08:51:38;100808.44;;;7.17;100.00
64253;BME280;50592;52.958;-7.470;2023-12-14T08:54:04;100815.38;;;7.18;100.00
64253;BME280;50592;52.958;-7.470;2023-12-14T08:56:29;100819.06;;;7.15;100.00
64253;BME280;50592;52.958;-7.470;2023-12-14T08:58:55;100823.72;;;7.12;100.00
64253;BME280;50592;52.958;-7.470;2023-12-14T09:01:21;100826.47;;;7.10;100.00
64253;BME280;50592;52.958;-7.470;2023-12-14T09:03:48;100823.94;;;7.09;100.00
64253;BME280;50592;52.958;-7.470;2023-12-14T09:06:15;100825.72;;;7.08;100.00
64253;BME280;50592;52.958;-7.470;2023-12-14T09:08:41;100832.78;;;7.07;100.00
64253;BME280;50592;52.958;-7.470;2023-12-14T09:11:07;100831.09;;;7.06;100.00
64253;BME280;50592;52.958;-7.470;2023-12-14T09:13:33;100834.59;;;7.07;100.00
64253;BME280;50592;52.958;-7.470;2023-12-14T09:15:58;100838.03;;;7.07;100.00
64253;BME280;50592;52.958;-7.470;2023-12-14T09:18:24;100841.16;;;7.13;100.00
64253;BME280;50592;52.958;-7.470;2023-12-14T09:20:53;100845.13;;;7.18;100.00
64253;BME280;50592;52.958;-7.470;2023-12-14T09:23:19;100863.41;;;7.20;100.00
64253;BME280;50592;52.958;-7.470;2023-12-14T09:25:45;100861.63;;;7.20;100.00
64253;BME280;50592;52.958;-7.470;2023-12-14T09:28:10;100858.03;;;7.22;100.00
64253;BME280;50592;52.958;-7.470;2023-12-14T09:30:36;100871.19;;;7.22;100.00
64253;BME280;50592;52.958;-7.470;2023-12-14T09:33:02;100878.25;;;7.21;100.00
64253;BME280;50592;52.958;-7.470;2023-12-14T09:35:28;100882.66;;;7.20;100.00
64253;BME280;50592;52.958;-7.470;2023-12-14T09:37:54;100885.31;;;7.20;100.00
64253;BME280;50592;52.958;-7.470;2023-12-14T09:40:22;100885.53;;;7.17;100.00
64253;BME280;50592;52.958;-7.470;2023-12-14T09:42:48;100900.56;;;7.15;100.00
64253;BME280;50592;52.958;-7.470;2023-12-14T09:45:13;100901.63;;;7.13;100.00
64253;BME280;50592;52.958;-7.470;2023-12-14T09:47:41;100900.66;;;7.14;100.00
64253;BME280;50592;52.958;-7.470;2023-12-14T09:50:08;100906.66;;;7.16;100.00
64253;BME280;50592;52.958;-7.470;2023-12-14T09:52:34;100910.75;;;7.20;100.00
64253;BME280;50592;52.958;-7.470;2023-12-14T09:54:59;100913.78;;;7.27;100.00
64253;BME280;50592;52.958;-7.470;2023-12-14T09:57:25;100924.91;;;7.30;100.00
64253;BME280;50592;52.958;-7.470;2023-12-14T09:59:55;100916.81;;;7.34;100.00
64253;BME280;50592;52.958;-7.470;2023-12-14T10:02:24;100928.06;;;7.36;100.00
64253;BME280;50592;52.958;-7.470;2023-12-14T10:04:50;100915.63;;;7.38;100.00
64253;BME280;50592;52.958;-7.470;2023-12-14T10:07:15;100924.59;;;7.35;100.00
64253;BME280;50592;52.958;-7.470;2023-12-14T10:09:42;100929.09;;;7.33;100.00
64253;BME280;50592;52.958;-7.470;2023-12-14T10:12:08;100934.25;;;7.35;100.00
64253;BME280;50592;52.958;-7.470;2023-12-14T10:14:35;100937.72;;;7.35;100.00
64253;BME280;50592;52.958;-7.470;2023-12-14T10:19:43;100945.50;;;7.37;100.00
64253;BME280;50592;52.958;-7.470;2023-12-14T10:22:10;100949.81;;;7.38;100.00
64253;BME280;50592;52.958;-7.470;2023-12-14T10:24:36;100956.56;;;7.42;100.00
64253;BME280;50592;52.958;-7.470;2023-12-14T10:27:08;100959.88;;;7.44;100.00
64253;BME280;50592;52.958;-7.470;2023-12-14T10:29:34;100964.22;;;7.45;100.00
64253;BME280;50592;52.958;-7.470;2023-12-14T10:32:04;100959.88;;;7.44;100.00
64253;BME280;50592;52.958;-7.470;2023-12-14T10:34:32;100961.38;;;7.48;100.00
64253;BME280;50592;52.958;-7.470;2023-12-14T10:36:58;100965.66;;;7.49;100.00
64253;BME280;50592;52.958;-7.470;2023-12-14T10:39:25;100963.78;;;7.51;100.00
64253;BME280;50592;52.958;-7.470;2023-12-14T10:41:52;100967.09;;;7.53;100.00
64253;BME280;50592;52.958;-7.470;2023-12-14T10:44:20;100967.72;;;7.57;100.00
64253;BME280;50592;52.958;-7.470;2023-12-14T10:46:47;100985.94;;;7.60;100.00
64253;BME280;50592;52.958;-7.470;2023-12-14T10:49:17;100975.06;;;7.65;100.00
64253;BME280;50592;52.958;-7.470;2023-12-14T10:51:44;100986.31;;;7.67;100.00
64253;BME280;50592;52.958;-7.470;2023-12-14T10:54:14;100986.94;;;7.71;100.00
64253;BME280;50592;52.958;-7.470;2023-12-14T10:56:41;100992.00;;;7.74;100.00
64253;BME280;50592;52.958;-7.470;2023-12-14T10:59:08;100992.81;;;7.74;100.00
64253;BME280;50592;52.958;-7.470;2023-12-14T11:01:35;101002.19;;;7.78;100.00
64253;BME280;50592;52.958;-7.470;2023-12-14T11:04:05;101004.91;;;7.77;100.00
64253;BME280;50592;52.958;-7.470;2023-12-14T11:06:33;101016.16;;;7.79;100.00
64253;BME280;50592;52.958;-7.470;2023-12-14T11:09:04;101008.88;;;7.82;100.00
64253;BME280;50592;52.958;-7.470;2023-12-14T11:14:12;101008.44;;;7.89;100.00
64253;BME280;50592;52.958;-7.470;2023-12-14T11:16:39;101012.75;;;7.90;100.00
64253;BME280;50592;52.958;-7.470;2023-12-14T11:22:33;101018.03;;;7.90;100.00
64253;BME280;50592;52.958;-7.470;2023-12-14T11:24:36;101012.66;;;7.91;100.00
64253;BME280;50592;52.958;-7.470;2023-12-14T11:27:08;101011.06;;;7.89;100.00
64253;BME280;50592;52.958;-7.470;2023-12-14T11:29:38;101012.75;;;7.90;100.00
64253;BME280;50592;52.958;-7.470;2023-12-14T11:32:07;101017.91;;;7.91;100.00
64253;BME280;50592;52.958;-7.470;2023-12-14T11:34:34;101022.00;;;7.96;100.00
64253;BME280;50592;52.958;-7.470;2023-12-14T11:37:00;101022.72;;;7.98;100.00
64253;BME280;50592;52.958;-7.470;2023-12-14T11:39:31;101032.06;;;8.02;100.00
64253;BME280;50592;52.958;-7.470;2023-12-14T11:41:59;101036.25;;;8.04;100.00
64253;BME280;50592;52.958;-7.470;2023-12-14T11:44:26;101036.03;;;8.07;100.00
64253;BME280;50592;52.958;-7.470;2023-12-14T11:46:52;101032.22;;;8.12;100.00
64253;BME280;50592;52.958;-7.470;2023-12-14T11:49:23;101038.72;;;8.19;100.00
64253;BME280;50592;52.958;-7.470;2023-12-14T11:51:50;101033.09;;;8.24;100.00
64253;BME280;50592;52.958;-7.470;2023-12-14T11:54:16;101035.38;;;8.28;100.00
64253;BME280;50592;52.958;-7.470;2023-12-14T11:56:46;101021.28;;;8.29;100.00
64253;BME280;50592;52.958;-7.470;2023-12-14T11:59:12;101025.59;;;8.30;100.00
64253;BME280;50592;52.958;-7.470;2023-12-14T12:01:38;101021.28;;;8.29;100.00
64253;BME280;50592;52.958;-7.470;2023-12-14T12:04:09;101016.72;;;8.31;100.00
64253;BME280;50592;52.958;-7.470;2023-12-14T12:06:38;101019.25;;;8.33;100.00
64253;BME280;50592;52.958;-7.470;2023-12-14T12:09:05;101026.22;;;8.34;100.00
64253;BME280;50592;52.958;-7.470;2023-12-14T12:11:34;101026.09;;;8.36;100.00
64253;BME280;50592;52.958;-7.470;2023-12-14T12:14:02;101025.63;;;8.42;100.00
64253;BME280;50592;52.958;-7.470;2023-12-14T12:16:28;101030.66;;;8.45;100.00
64253;BME280;50592;52.958;-7.470;2023-12-14T12:18:54;101031.41;;;8.47;100.00
64253;BME280;50592;52.958;-7.470;2023-12-14T12:21:20;101034.84;;;8.48;100.00
64253;BME280;50592;52.958;-7.470;2023-12-14T12:23:46;101029.59;;;8.48;100.00
64253;BME280;50592;52.958;-7.470;2023-12-14T12:26:12;101026.84;;;8.49;100.00
64253;BME280;50592;52.958;-7.470;2023-12-14T12:28:38;101036.44;;;8.50;100.00
64253;BME280;50592;52.958;-7.470;2023-12-14T12:31:04;101032.84;;;8.51;100.00
64253;BME280;50592;52.958;-7.470;2023-12-14T12:33:29;101038.00;;;8.53;100.00
64253;BME280;50592;52.958;-7.470;2023-12-14T12:35:55;101036.31;;;8.52;100.00
64253;BME280;50592;52.958;-7.470;2023-12-14T12:38:21;101041.38;;;8.55;100.00
64253;BME280;50592;52.958;-7.470;2023-12-14T12:40:46;101050.00;;;8.57;100.00
64253;BME280;50592;52.958;-7.470;2023-12-14T12:43:13;101050.00;;;8.57;100.00
64253;BME280;50592;52.958;-7.470;2023-12-14T12:45:39;101048.94;;;8.60;100.00
64253;BME280;50592;52.958;-7.470;2023-12-14T12:48:06;101049.63;;;8.62;100.00
64253;BME280;50592;52.958;-7.470;2023-12-14T12:50:32;101050.50;;;8.62;100.00
64253;BME280;50592;52.958;-7.470;2023-12-14T12:52:58;101055.66;;;8.64;100.00
64253;BME280;50592;52.958;-7.470;2023-12-14T12:55:25;101059.25;;;8.63;100.00
64253;BME280;50592;52.958;-7.470;2023-12-14T12:57:51;101061.03;;;8.62;100.00
64253;BME280;50592;52.958;-7.470;2023-12-14T13:00:17;101070.59;;;8.63;100.00
64253;BME280;50592;52.958;-7.470;2023-12-14T13:02:44;101067.84;;;8.65;100.00